Time;durP1;ratioP1;P1;durP2;ratioP2;P2;SDS_P1;SDS_P2;PMS_P1;PMS_P2;Temp;Humidity;BMP_temperature;BMP_pressure;BME280_temperature;BME280_humidity;BME280_pressure;Samples;Min_cycle;Max_cycle;Signal;HPM_P1;HPM_P2
2021/08/12 00:01:51;;;;;;;763.70;497.23;;;;;;;14.59;67.21;101137.53;5068847;28;20778;-68
2021/08/12 00:04:19;;;;;;;772.90;515.37;;;;;;;14.87;67.03;101190.31;5070307;28;20438;-67
2021/08/12 00:06:48;;;;;;;767.43;502.83;;;;;;;14.87;67.21;101178.63;5072382;28;20447;-68
2021/08/12 00:09:17;;;;;;;768.93;496.30;;;;;;;14.83;67.85;101182.56;5072674;28;20436;-67
2021/08/12 00:11:45;;;;;;;781.47;520.03;;;;;;;14.79;67.67;101191.91;5072000;28;20810;-67
2021/08/12 00:14:13;;;;;;;784.07;525.63;;;;;;;14.74;68.08;101181.44;5071145;28;20448;-68
2021/08/12 00:16:42;;;;;;;785.47;521.77;;;;;;;14.74;67.62;101191.41;5070647;28;20540;-68
2021/08/12 00:19:12;;;;;;;791.03;536.10;;;;;;;14.69;67.83;101186.31;5072241;28;20552;-67
2021/08/12 00:21:41;;;;;;;787.17;530.10;;;;;;;14.62;67.58;101181.53;5069789;28;20461;-68
2021/08/12 00:24:09;;;;;;;787.93;539.20;;;;;;;14.68;67.38;101184.59;5060746;28;20983;-68
2021/08/12 00:26:39;;;;;;;767.70;503.20;;;;;;;14.65;67.16;101181.28;5071776;28;20971;-68
2021/08/12 00:29:07;;;;;;;767.20;496.23;;;;;;;14.63;67.18;101172.44;5072419;28;20441;-68
2021/08/12 00:31:35;;;;;;;771.10;495.33;;;;;;;14.65;66.86;101189.38;5070657;28;20480;-67
2021/08/12 00:34:04;;;;;;;771.80;505.23;;;;;;;14.59;67.30;101188.88;5058214;28;20447;-67
2021/08/12 00:36:32;;;;;;;785.13;525.43;;;;;;;14.40;67.23;101166.97;5070665;28;20446;-67
2021/08/12 00:39:03;;;;;;;763.90;485.80;;;;;;;14.49;68.09;101190.59;5070682;28;20470;-68
2021/08/12 00:41:36;;;;;;;760.57;483.93;;;;;;;14.46;68.76;101193.53;5070720;28;20797;-67
2021/08/12 00:44:09;;;;;;;756.87;477.13;;;;;;;14.40;68.46;101199.38;5070201;28;20471;-68
2021/08/12 00:46:37;;;;;;;758.77;487.33;;;;;;;14.38;68.46;101193.19;5070331;28;20471;-68
2021/08/12 00:49:08;;;;;;;758.90;481.30;;;;;;;14.37;67.63;101199.59;5070451;28;20447;-67
2021/08/12 00:51:40;;;;;;;749.23;479.47;;;;;;;13.97;67.99;101135.09;5063613;28;20865;-67
2021/08/12 00:54:08;;;;;;;750.63;471.97;;;;;;;14.34;67.81;101196.25;5077020;28;20501;-67
2021/08/12 00:56:37;;;;;;;730.87;450.80;;;;;;;14.30;67.72;101192.94;5069658;28;20868;-67
2021/08/12 00:59:05;;;;;;;725.40;429.30;;;;;;;14.28;67.78;101193.06;5078418;28;20498;-67
2021/08/12 01:01:35;;;;;;;733.47;431.37;;;;;;;14.28;66.96;101195.75;5062329;28;20446;-67
2021/08/12 01:04:05;;;;;;;742.07;438.83;;;;;;;14.30;66.84;101184.81;5058457;28;20503;-68
2021/08/12 01:06:48;;;;;;;741.63;446.50;;;;;;;14.32;67.20;101190.97;5066592;28;20952;-67
2021/08/12 01:09:28;;;;;;;743.90;456.47;;;;;;;14.30;67.11;101191.09;5049665;28;20474;-68
2021/08/12 01:12:00;;;;;;;750.33;469.47;;;;;;;14.08;66.81;101155.00;5059324;28;20506;-67
2021/08/12 01:14:38;;;;;;;755.07;479.97;;;;;;;14.27;66.77;101194.03;5085978;28;20439;-67
2021/08/12 01:17:09;;;;;;;762.57;492.27;;;;;;;14.22;67.16;101185.41;5069107;28;20441;-67
2021/08/12 01:20:02;;;;;;;767.20;492.47;;;;;;;14.21;67.20;101188.25;5069462;28;20943;-67
2021/08/12 01:22:33;;;;;;;773.00;505.03;;;;;;;14.16;66.75;101187.72;5069687;28;20514;-68
2021/08/12 01:25:15;;;;;;;741.17;461.83;;;;;;;14.05;68.82;101191.22;5069600;28;20455;-67
2021/08/12 01:27:50;;;;;;;752.57;475.17;;;;;;;13.99;68.67;101194.38;5086244;28;20499;-68
2021/08/12 01:30:24;;;;;;;759.83;482.57;;;;;;;13.92;68.04;101182.31;5070973;28;20430;-68
2021/08/12 01:33:05;;;;;;;769.70;492.77;;;;;;;13.94;67.87;101191.16;5057788;28;20442;-67
2021/08/12 01:35:37;;;;;;;760.07;480.03;;;;;;;13.93;67.97;101190.31;5066295;28;20548;-67
2021/08/12 01:38:11;;;;;;;771.00;493.07;;;;;;;13.96;67.16;101192.78;5062801;28;20962;-68
2021/08/12 01:40:41;;;;;;;767.30;497.67;;;;;;;13.98;66.93;101193.53;5055360;28;20437;-68
2021/08/12 01:43:16;;;;;;;773.40;503.27;;;;;;;14.02;66.78;101187.88;5069545;28;20451;-68
2021/08/12 01:45:49;;;;;;;774.53;507.50;;;;;;;14.05;66.58;101198.47;5069143;28;20440;-68
2021/08/12 01:48:18;;;;;;;769.00;502.93;;;;;;;13.92;66.43;101176.94;5069418;28;20840;-68
2021/08/12 01:50:48;;;;;;;766.53;492.00;;;;;;;14.08;66.92;101199.13;5068737;28;20517;-67
2021/08/12 01:53:17;;;;;;;770.83;494.20;;;;;;;13.85;67.96;101170.28;5069509;28;20971;-68
2021/08/12 01:55:46;;;;;;;770.47;497.53;;;;;;;13.66;68.29;101151.88;5069012;28;20564;-68
2021/08/12 01:58:17;;;;;;;780.07;504.20;;;;;;;13.85;68.25;101202.66;5069227;28;20943;-67
2021/08/12 02:00:47;;;;;;;772.23;497.10;;;;;;;13.80;68.73;101208.41;5069032;28;21006;-67
2021/08/12 02:03:17;;;;;;;779.60;504.87;;;;;;;13.77;68.09;101205.03;5068890;28;20531;-70
2021/08/12 02:05:48;;;;;;;768.20;490.57;;;;;;;13.75;68.83;101202.47;5059199;28;20439;-67
2021/08/12 02:08:19;;;;;;;842.90;630.67;;;;;;;13.68;68.00;101201.19;5072072;28;20442;-67
2021/08/12 02:10:50;;;;;;;835.90;630.93;;;;;;;13.70;67.95;101198.38;5068615;28;20497;-67
2021/08/12 02:13:18;;;;;;;822.70;606.40;;;;;;;13.76;67.37;101204.19;5102597;28;20541;-68
2021/08/12 02:15:47;;;;;;;815.60;590.70;;;;;;;13.75;67.50;101196.19;5069745;28;20782;-67
2021/08/12 02:18:15;;;;;;;835.73;637.93;;;;;;;13.82;67.02;101209.16;5070283;28;21002;-67
2021/08/12 02:20:51;;;;;;;856.70;670.90;;;;;;;13.48;66.63;101153.25;5102069;28;20469;-68
2021/08/12 02:23:24;;;;;;;850.57;660.37;;;;;;;13.80;66.55;101208.41;5070120;28;20432;-68
2021/08/12 02:25:57;;;;;;;853.57;673.93;;;;;;;13.64;66.81;101200.56;5102247;28;20454;-68
2021/08/12 02:28:29;;;;;;;848.17;660.57;;;;;;;13.43;67.28;101169.75;5067931;28;20509;-68
2021/08/12 02:30:59;;;;;;;852.03;674.70;;;;;;;13.69;67.79;101224.50;5068351;28;20710;-68
2021/08/12 02:33:32;;;;;;;855.93;691.30;;;;;;;13.55;67.93;101209.34;5096731;28;20453;-68
2021/08/12 02:36:01;;;;;;;869.23;703.80;;;;;;;13.58;67.94;101221.75;5067759;28;20421;-68
2021/08/12 02:38:30;;;;;;;872.60;699.57;;;;;;;13.51;68.53;101220.47;5102040;28;20537;-67
2021/08/12 02:41:00;;;;;;;857.83;668.63;;;;;;;13.21;70.67;101196.56;5102017;28;20947;-67
2021/08/12 02:43:32;;;;;;;819.70;566.23;;;;;;;13.35;70.24;101226.97;5068313;28;20448;-68
2021/08/12 02:46:03;;;;;;;830.13;570.23;;;;;;;13.10;71.04;101205.38;5102064;28;20970;-68
2021/08/12 02:48:32;;;;;;;807.07;546.90;;;;;;;13.25;71.79;101231.28;5068159;28;21006;-69
2021/08/12 02:51:03;;;;;;;794.60;535.73;;;;;;;13.27;70.70;101226.66;5101870;28;20974;-68
2021/08/12 02:53:33;;;;;;;803.33;546.87;;;;;;;13.17;72.08;101232.78;5085001;28;20959;-67
2021/08/12 02:56:07;;;;;;;797.17;529.67;;;;;;;13.13;72.22;101218.63;5070769;28;20451;-68
2021/08/12 02:58:37;;;;;;;791.10;520.80;;;;;;;13.11;72.21;101225.97;5069487;28;20441;-68
2021/08/12 03:01:06;;;;;;;757.07;481.87;;;;;;;13.10;72.45;101231.47;5102020;28;20448;-68
2021/08/12 03:03:39;;;;;;;771.43;501.17;;;;;;;13.05;72.37;101234.50;5101913;28;20442;-68
2021/08/12 03:06:12;;;;;;;779.97;512.70;;;;;;;13.02;74.11;101234.72;5101922;28;20875;-68
2021/08/12 03:08:41;;;;;;;793.53;537.17;;;;;;;12.93;73.97;101233.53;5069305;28;20433;-68
2021/08/12 03:11:11;;;;;;;784.00;527.97;;;;;;;13.03;73.23;101233.75;5084793;28;20520;-68
2021/08/12 03:13:40;;;;;;;788.20;521.93;;;;;;;13.09;72.32;101230.59;5101885;28;20437;-68
2021/08/12 03:16:08;;;;;;;762.40;479.23;;;;;;;13.13;71.45;101236.63;5101494;28;20541;-68
2021/08/12 03:18:37;;;;;;;799.00;550.50;;;;;;;13.18;71.19;101224.63;5101661;28;20900;-68
2021/08/12 03:21:08;;;;;;;778.73;519.33;;;;;;;13.21;70.81;101224.41;5067864;28;20962;-68
2021/08/12 03:23:37;;;;;;;782.03;523.03;;;;;;;13.27;70.22;101234.75;5101552;28;20989;-68
2021/08/12 03:26:06;;;;;;;767.00;485.50;;;;;;;13.31;70.02;101225.47;5069272;28;20530;-68
2021/08/12 03:28:35;;;;;;;768.10;491.33;;;;;;;13.26;72.36;101222.22;5101380;28;20539;-68
2021/08/12 03:31:05;;;;;;;759.20;477.10;;;;;;;13.10;70.58;101201.81;5101696;28;20451;-68
2021/08/12 03:33:34;;;;;;;771.63;497.63;;;;;;;13.32;69.84;101226.31;5068850;28;20564;-68
2021/08/12 03:36:02;;;;;;;799.33;551.77;;;;;;;13.40;69.00;101232.00;5101646;28;20961;-68
2021/08/12 03:38:34;;;;;;;789.83;538.23;;;;;;;13.44;69.80;101233.53;5103360;28;20458;-68
2021/08/12 03:41:04;;;;;;;784.63;512.87;;;;;;;13.47;69.67;101232.44;5073307;28;20429;-68
2021/08/12 03:43:33;;;;;;;784.97;518.37;;;;;;;13.49;69.41;101239.47;5105417;28;20799;-68
2021/08/12 03:46:02;;;;;;;775.53;507.90;;;;;;;13.30;69.81;101196.75;5105795;28;20435;-68
2021/08/12 03:48:30;;;;;;;780.03;511.40;;;;;;;13.54;70.84;101231.03;5071636;28;20433;-68
2021/08/12 03:50:58;;;;;;;756.13;479.90;;;;;;;13.59;69.18;101245.06;5074630;28;20537;-68
2021/08/12 03:53:27;;;;;;;745.53;460.23;;;;;;;13.65;68.86;101237.38;5072937;28;20475;-68
2021/08/12 03:56:00;;;;;;;741.57;449.90;;;;;;;13.73;68.54;101235.94;5105100;28;20747;-68
2021/08/12 03:58:32;;;;;;;738.53;455.53;;;;;;;13.80;67.98;101245.34;5071196;28;20848;-68
2021/08/12 04:01:00;;;;;;;750.60;474.40;;;;;;;13.87;68.76;101250.19;5071553;28;20435;-68
2021/08/12 04:03:28;;;;;;;727.10;444.30;;;;;;;13.84;70.91;101244.16;5105438;28;20449;-68
2021/08/12 04:05:57;;;;;;;731.93;447.07;;;;;;;13.45;70.57;101175.88;5105143;28;20547;-68
2021/08/12 04:08:25;;;;;;;728.63;445.70;;;;;;;13.92;69.20;101252.53;5072673;28;20439;-68
2021/08/12 04:10:53;;;;;;;717.97;427.90;;;;;;;13.99;68.58;101249.25;5072690;28;20439;-68
2021/08/12 04:13:23;;;;;;;718.97;421.77;;;;;;;14.08;67.78;101245.03;5105448;28;20474;-68
2021/08/12 04:15:52;;;;;;;714.67;416.97;;;;;;;14.13;67.83;101247.38;5072391;28;20443;-68
2021/08/12 04:18:21;;;;;;;721.50;434.13;;;;;;;14.25;68.34;101249.16;5105145;28;20439;-68
2021/08/12 04:20:50;;;;;;;723.67;441.43;;;;;;;14.24;71.01;101253.69;5104762;28;20458;-68
2021/08/12 04:23:18;;;;;;;723.53;428.10;;;;;;;14.21;72.41;101255.78;5057406;28;20452;-68
2021/08/12 04:25:46;;;;;;;723.00;423.90;;;;;;;14.15;71.68;101254.41;5070957;28;20490;-68
2021/08/12 04:28:14;;;;;;;737.23;444.23;;;;;;;13.93;72.05;101201.13;5104843;28;20954;-69
2021/08/12 04:30:44;;;;;;;748.97;455.23;;;;;;;14.22;72.88;101254.78;5072174;28;20878;-68
2021/08/12 04:33:13;;;;;;;741.10;462.13;;;;;;;14.28;74.20;101249.78;5072207;28;20857;-68
2021/08/12 04:35:41;;;;;;;748.33;471.03;;;;;;;14.39;74.16;101250.81;5080579;28;20440;-68
2021/08/12 04:38:09;;;;;;;735.53;453.27;;;;;;;14.22;76.04;101207.03;5104509;28;20493;-68
2021/08/12 04:40:38;;;;;;;765.57;492.50;;;;;;;14.53;75.49;101240.72;5072016;28;20493;-68
2021/08/12 04:43:08;;;;;;;759.73;502.17;;;;;;;14.72;76.98;101269.06;5104697;28;20439;-68
2021/08/12 04:45:36;;;;;;;765.13;500.17;;;;;;;14.80;75.84;101261.22;5073151;28;20435;-68
2021/08/12 04:48:06;;;;;;;774.03;520.20;;;;;;;14.90;75.73;101259.53;5071796;28;21036;-68
2021/08/12 04:50:37;;;;;;;810.93;607.73;;;;;;;14.86;78.63;101247.22;5069967;28;20500;-68
2021/08/12 04:53:06;;;;;;;807.63;609.43;;;;;;;15.00;77.55;101251.53;5104697;28;21051;-68
2021/08/12 04:55:35;;;;;;;822.90;641.10;;;;;;;15.22;80.37;101265.97;5070221;28;20446;-68
2021/08/12 04:58:05;;;;;;;798.53;581.07;;;;;;;15.29;80.07;101265.47;5104608;28;20448;-68
2021/08/12 05:00:33;;;;;;;796.37;572.70;;;;;;;15.44;80.99;101272.41;5071289;28;20513;-68
2021/08/12 05:03:02;;;;;;;813.83;615.47;;;;;;;15.61;80.91;101269.25;5070282;28;20440;-69
2021/08/12 05:05:35;;;;;;;813.60;613.30;;;;;;;15.70;82.84;101268.50;5104046;28;20447;-68
2021/08/12 05:08:04;;;;;;;817.57;619.90;;;;;;;15.86;81.91;101257.25;5058301;28;20998;-68
2021/08/12 05:10:32;;;;;;;830.93;646.37;;;;;;;16.10;80.08;101270.66;5071491;28;21027;-68
2021/08/12 05:13:00;;;;;;;802.93;586.93;;;;;;;16.29;78.91;101273.56;5103741;28;20475;-68
2021/08/12 05:15:29;;;;;;;800.23;584.77;;;;;;;16.48;74.05;101272.88;5071393;28;20436;-68
2021/08/12 05:17:58;;;;;;;807.07;607.10;;;;;;;16.66;76.26;101268.66;5103786;28;20440;-68
2021/08/12 05:20:27;;;;;;;791.43;571.07;;;;;;;16.84;76.31;101274.38;5103693;28;20448;-68
2021/08/12 05:22:57;;;;;;;822.10;622.83;;;;;;;17.01;75.12;101271.06;5103547;28;20464;-69
2021/08/12 05:25:25;;;;;;;772.80;534.87;;;;;;;17.20;75.99;101255.91;5070052;28;20919;-70
2021/08/12 05:27:54;;;;;;;765.00;517.40;;;;;;;17.43;76.24;101262.00;5071237;28;20768;-69
2021/08/12 05:30:22;;;;;;;743.23;475.77;;;;;;;17.66;74.04;101269.84;5071568;28;20436;-69
2021/08/12 05:32:51;;;;;;;769.67;531.60;;;;;;;17.89;74.67;101269.69;5103395;28;21045;-66
2021/08/12 05:35:20;;;;;;;799.93;577.60;;;;;;;18.08;75.58;101266.16;5069881;28;20485;-70
2021/08/12 05:37:49;;;;;;;756.77;493.47;;;;;;;18.32;73.17;101274.75;5103233;28;20451;-69
2021/08/12 05:40:18;;;;;;;757.97;513.00;;;;;;;18.56;72.99;101266.22;5071145;28;20444;-69
2021/08/12 05:42:47;;;;;;;751.97;497.10;;;;;;;18.77;72.96;101266.97;5103214;28;20455;-67
2021/08/12 05:45:17;;;;;;;753.50;494.23;;;;;;;19.04;70.04;101276.25;5069564;28;20440;-68
2021/08/12 05:47:45;;;;;;;753.37;498.03;;;;;;;19.28;68.00;101282.06;5070781;28;20439;-68
2021/08/12 05:50:13;;;;;;;775.83;543.17;;;;;;;19.50;69.64;101269.97;5070877;28;20903;-68
2021/08/12 05:52:42;;;;;;;766.60;525.73;;;;;;;19.80;65.14;101282.50;5088875;28;20444;-68
2021/08/12 05:55:10;;;;;;;763.20;522.50;;;;;;;19.87;67.33;101255.47;5103262;28;20440;-68
2021/08/12 05:57:41;;;;;;;731.43;477.63;;;;;;;20.25;61.28;101273.50;5102832;28;20198;-68
2021/08/12 06:00:14;;;;;;;759.90;526.60;;;;;;;20.38;64.57;101283.03;5103163;28;20289;-68
2021/08/12 06:02:50;;;;;;;779.93;566.30;;;;;;;20.44;64.70;101266.06;5101712;28;20460;-67
2021/08/12 06:05:25;;;;;;;794.63;595.47;;;;;;;20.66;64.70;101281.13;5069447;28;20205;-68
2021/08/12 06:07:53;;;;;;;797.07;606.60;;;;;;;20.80;65.00;101271.50;5102705;28;20202;-68
2021/08/12 06:10:22;;;;;;;742.87;489.80;;;;;;;21.07;60.93;101254.16;5103051;28;20734;-68
2021/08/12 06:12:53;;;;;;;746.80;500.13;;;;;;;21.33;61.70;101267.84;5069922;28;20255;-68
2021/08/12 06:15:23;;;;;;;763.20;545.80;;;;;;;21.61;61.68;101276.75;5103162;28;20212;-68
2021/08/12 06:17:56;;;;;;;742.23;489.20;;;;;;;21.84;61.42;101277.88;5102793;28;20224;-67
2021/08/12 06:20:25;;;;;;;731.07;478.47;;;;;;;22.05;58.58;101279.38;5102782;28;20702;-68
2021/08/12 06:22:53;;;;;;;737.63;499.23;;;;;;;22.25;60.74;101281.66;5102345;28;20275;-68
2021/08/12 06:25:22;;;;;;;740.60;505.83;;;;;;;22.50;59.02;101279.84;5070192;28;20213;-68
2021/08/12 06:27:52;;;;;;;744.27;505.50;;;;;;;22.73;57.48;101284.66;5102136;28;20209;-68
2021/08/12 06:30:20;;;;;;;740.83;506.90;;;;;;;22.95;56.85;101278.53;5102612;28;20297;-68
2021/08/12 06:32:48;;;;;;;737.17;504.87;;;;;;;23.23;56.08;101276.28;5102373;28;20360;-68
2021/08/12 06:35:17;;;;;;;776.10;559.83;;;;;;;23.37;56.45;101277.47;5102419;28;20221;-67
2021/08/12 06:37:46;;;;;;;747.77;517.13;;;;;;;23.29;56.43;101250.09;5102273;28;20241;-68
2021/08/12 06:40:15;;;;;;;746.40;501.90;;;;;;;23.53;56.15;101280.16;5069703;28;20193;-68
2021/08/12 06:42:43;;;;;;;737.87;502.93;;;;;;;23.78;54.49;101291.97;5102041;28;20738;-68
2021/08/12 06:45:20;;;;;;;743.37;511.73;;;;;;;23.76;56.32;101278.44;5069845;28;20657;-68
2021/08/12 06:47:50;;;;;;;741.87;513.73;;;;;;;24.01;55.16;101298.41;5102046;28;20208;-68
2021/08/12 06:50:22;;;;;;;743.50;511.87;;;;;;;24.03;56.46;101307.31;5102165;28;20197;-68
2021/08/12 06:52:50;;;;;;;739.00;502.40;;;;;;;23.78;55.87;101300.19;5101932;28;20247;-68
2021/08/12 06:55:20;;;;;;;740.47;504.93;;;;;;;23.86;56.18;101294.69;5102263;28;20225;-68
2021/08/12 06:57:48;;;;;;;744.37;507.27;;;;;;;24.07;56.95;101299.56;5087915;28;20229;-68
2021/08/12 07:00:20;;;;;;;743.57;520.17;;;;;;;24.28;56.45;101308.09;5102105;28;20240;-68
2021/08/12 07:02:48;;;;;;;749.90;542.57;;;;;;;24.33;54.58;101313.03;5101684;28;20205;-68
2021/08/12 07:05:18;;;;;;;746.33;525.27;;;;;;;24.10;57.53;101310.19;5102224;28;20241;-68
2021/08/12 07:07:47;;;;;;;747.27;522.10;;;;;;;24.37;55.94;101307.00;5067928;28;20771;-68
2021/08/12 07:10:18;;;;;;;739.50;513.67;;;;;;;24.54;54.68;101305.03;5101990;28;20220;-68
2021/08/12 07:12:47;;;;;;;748.43;534.87;;;;;;;24.64;56.01;101304.78;5067548;28;20207;-68
2021/08/12 07:15:16;;;;;;;746.53;526.57;;;;;;;24.87;53.46;101302.06;5101878;28;20245;-68
2021/08/12 07:17:47;;;;;;;747.23;522.93;;;;;;;24.89;53.18;101309.06;5101515;28;20205;-68
2021/08/12 07:20:18;;;;;;;749.37;541.17;;;;;;;24.93;54.04;101309.56;5101564;28;20209;-68
2021/08/12 07:22:48;;;;;;;748.80;532.73;;;;;;;25.21;52.32;101307.97;5067426;28;20290;-68
2021/08/12 07:25:22;;;;;;;748.27;532.17;;;;;;;25.28;52.83;101310.84;5068417;28;20561;-68
2021/08/12 07:27:50;;;;;;;750.17;535.07;;;;;;;25.63;51.85;101309.28;5101301;28;20235;-68
2021/08/12 07:30:20;;;;;;;749.47;536.57;;;;;;;25.66;52.24;101303.38;5067873;28;20255;-68
2021/08/12 07:32:50;;;;;;;753.83;535.50;;;;;;;25.63;51.24;101306.53;5101270;28;20667;-68
2021/08/12 07:35:22;;;;;;;751.47;541.33;;;;;;;26.01;51.03;101310.06;5069221;28;20217;-68
2021/08/12 07:37:50;;;;;;;755.70;547.87;;;;;;;26.11;50.14;101307.88;5068898;28;20542;-68
2021/08/12 07:40:19;;;;;;;751.00;546.30;;;;;;;26.40;49.33;101304.25;5070940;28;20201;-68
2021/08/12 07:42:48;;;;;;;761.63;568.43;;;;;;;26.09;49.00;101301.72;5080441;28;20205;-68
2021/08/12 07:45:17;;;;;;;759.60;561.70;;;;;;;26.23;49.86;101311.84;5072386;28;20200;-69
2021/08/12 07:47:45;;;;;;;762.60;572.17;;;;;;;25.96;49.62;101274.00;5067575;28;20295;-68
2021/08/12 07:50:14;;;;;;;755.57;555.33;;;;;;;26.30;50.04;101310.03;5069191;28;20201;-68
2021/08/12 07:52:42;;;;;;;760.30;557.10;;;;;;;26.72;49.53;101313.94;5055178;28;20212;-69
2021/08/12 07:55:12;;;;;;;761.93;567.43;;;;;;;26.90;48.59;101310.72;5068929;28;20224;-68
2021/08/12 07:57:40;;;;;;;759.17;559.47;;;;;;;27.04;47.45;101303.47;5068551;28;20220;-68
2021/08/12 08:00:09;;;;;;;768.10;593.00;;;;;;;26.73;47.18;101321.16;5068851;28;20202;-68
2021/08/12 08:02:44;;;;;;;804.27;631.57;;;;;;;26.64;48.43;101321.50;5068775;28;20202;-68
2021/08/12 08:05:16;;;;;;;834.27;690.33;;;;;;;26.55;47.67;101312.47;5101429;28;20205;-68
2021/08/12 08:07:45;;;;;;;855.27;717.17;;;;;;;26.18;48.08;101327.25;5068531;28;20216;-68
2021/08/12 08:10:14;;;;;;;845.53;713.20;;;;;;;26.39;47.13;101315.47;5068794;28;20735;-68
2021/08/12 08:12:42;;;;;;;843.27;708.20;;;;;;;26.52;47.10;101312.88;5068542;28;20193;-68
2021/08/12 08:15:11;;;;;;;834.47;688.23;;;;;;;26.67;47.62;101312.84;5068426;28;20228;-68
2021/08/12 08:17:59;;;;;;;844.03;707.67;;;;;;;26.45;48.19;101320.22;5068712;28;20732;-68
2021/08/12 08:20:29;;;;;;;823.60;672.07;;;;;;;26.51;47.33;101313.91;5068503;28;20209;-68
2021/08/12 08:23:03;;;;;;;814.90;654.83;;;;;;;26.66;47.53;101319.41;5068930;28;20204;-68
2021/08/12 08:25:32;;;;;;;780.23;611.47;;;;;;;27.10;47.24;101319.22;5070425;28;20194;-69
2021/08/12 08:28:00;;;;;;;796.57;632.10;;;;;;;27.35;46.33;101309.47;5072270;28;20209;-68
2021/08/12 08:30:31;;;;;;;803.70;639.13;;;;;;;27.49;45.11;101319.56;5072795;28;20208;-69
2021/08/12 08:32:59;;;;;;;835.00;685.00;;;;;;;27.63;45.30;101325.22;5072144;28;21141;-68
2021/08/12 08:35:29;;;;;;;832.50;685.47;;;;;;;27.56;44.39;101327.06;5104925;28;20221;-68
2021/08/12 08:37:58;;;;;;;848.67;710.63;;;;;;;27.67;43.75;101334.81;5072346;28;20203;-68
2021/08/12 08:40:27;;;;;;;810.67;653.33;;;;;;;28.00;42.59;101329.47;5072227;28;20664;-68
2021/08/12 08:42:57;;;;;;;853.30;705.90;;;;;;;27.63;44.55;101333.50;5062080;28;20237;-69
2021/08/12 08:45:27;;;;;;;816.10;665.17;;;;;;;27.85;44.40;101329.59;5068286;28;20197;-68
2021/08/12 08:47:57;;;;;;;832.07;684.07;;;;;;;28.09;43.42;101336.53;5104418;28;20220;-69
2021/08/12 08:50:28;;;;;;;812.10;661.07;;;;;;;28.18;44.24;101334.47;5072022;28;20197;-69
2021/08/12 08:52:59;;;;;;;839.77;699.17;;;;;;;28.19;44.10;101334.28;5072042;28;20194;-69
2021/08/12 08:55:27;;;;;;;844.17;704.33;;;;;;;28.51;43.69;101341.03;5071850;28;20236;-69
2021/08/12 08:57:56;;;;;;;815.37;667.27;;;;;;;28.32;44.37;101323.31;5072113;28;20217;-68
2021/08/12 09:00:26;;;;;;;844.00;708.47;;;;;;;28.57;42.43;101337.44;5071877;28;20528;-68
2021/08/12 09:02:55;;;;;;;831.97;689.60;;;;;;;28.54;43.83;101339.75;5056624;28;20242;-68
2021/08/12 09:05:24;;;;;;;803.17;655.13;;;;;;;28.67;42.89;101337.88;5071889;28;20193;-69
2021/08/12 09:07:52;;;;;;;810.77;660.93;;;;;;;28.47;43.62;101336.09;5103822;28;20197;-69
2021/08/12 09:10:22;;;;;;;796.10;631.67;;;;;;;28.55;42.75;101339.56;5071696;28;20209;-69
2021/08/12 09:12:51;;;;;;;797.47;643.20;;;;;;;28.83;43.22;101335.81;5071322;28;20208;-69
2021/08/12 09:15:20;;;;;;;811.37;659.03;;;;;;;28.91;42.81;101316.28;5071601;28;20692;-69
2021/08/12 09:17:50;;;;;;;832.63;692.93;;;;;;;29.35;42.34;101335.88;5069886;28;20240;-68
2021/08/12 09:20:21;;;;;;;829.73;689.23;;;;;;;29.21;42.53;101333.34;5071366;28;20255;-69
2021/08/12 09:22:55;;;;;;;787.73;625.87;;;;;;;29.66;40.70;101342.72;5070913;28;20237;-69
2021/08/12 09:25:35;;;;;;;822.47;689.10;;;;;;;29.58;41.16;101334.63;5071502;28;20201;-69
2021/08/12 09:28:24;;;;;;;828.90;688.20;;;;;;;29.71;41.83;101334.63;5072610;28;20205;-68
2021/08/12 09:31:11;;;;;;;816.73;672.80;;;;;;;29.24;42.31;101332.91;5069666;28;20227;-68
2021/08/12 09:33:52;;;;;;;799.33;648.90;;;;;;;28.90;41.39;101325.63;5069893;28;20205;-68
2021/08/12 09:36:29;;;;;;;800.87;645.60;;;;;;;29.15;42.49;101328.66;5069510;28;20221;-69
2021/08/12 09:39:08;;;;;;;829.20;696.00;;;;;;;29.14;41.48;101321.41;5071015;28;20201;-69
2021/08/12 09:41:42;;;;;;;830.07;684.17;;;;;;;29.74;41.02;101327.81;5070605;28;20288;-69
2021/08/12 09:44:30;;;;;;;838.57;709.70;;;;;;;29.45;41.65;101334.66;5071164;28;20201;-68
2021/08/12 09:46:58;;;;;;;826.67;693.93;;;;;;;29.65;40.77;101335.47;5070938;28;20538;-68
2021/08/12 09:49:37;;;;;;;819.67;680.53;;;;;;;29.41;40.23;101330.56;5070920;28;20292;-69
2021/08/12 09:52:28;;;;;;;816.60;673.33;;;;;;;29.46;40.31;101325.28;5070494;28;20207;-68
2021/08/12 09:54:59;;;;;;;831.37;698.50;;;;;;;29.28;40.81;101296.28;5070458;28;20549;-68
2021/08/12 09:57:41;;;;;;;832.00;686.93;;;;;;;29.57;40.85;101335.69;5070597;28;20204;-69
2021/08/12 10:00:12;;;;;;;850.87;727.27;;;;;;;29.36;41.37;101336.72;5070555;28;20205;-68
2021/08/12 10:02:41;;;;;;;858.27;732.10;;;;;;;29.82;41.48;101322.88;5070202;28;20193;-68
2021/08/12 10:05:11;;;;;;;865.73;741.73;;;;;;;29.04;41.86;101332.88;5070453;28;20353;-67
2021/08/12 10:07:44;;;;;;;846.70;719.63;;;;;;;29.11;40.85;101333.75;5070278;28;20197;-68
2021/08/12 10:10:19;;;;;;;841.50;711.40;;;;;;;29.40;40.67;101328.88;5070485;28;20203;-68
2021/08/12 10:12:51;;;;;;;886.87;773.53;;;;;;;29.34;41.47;101338.84;5069976;28;20664;-68
2021/08/12 10:15:23;;;;;;;886.10;777.90;;;;;;;29.64;41.44;101340.16;5102619;28;20221;-68
2021/08/12 10:17:51;;;;;;;884.37;774.47;;;;;;;29.80;41.43;101341.63;5069914;28;20204;-68
2021/08/12 10:20:22;;;;;;;890.17;782.97;;;;;;;29.86;40.15;101324.16;5070464;28;20205;-68
2021/08/12 10:22:54;;;;;;;890.00;782.03;;;;;;;29.67;39.87;101336.94;5069692;28;20592;-68
2021/08/12 10:25:23;;;;;;;895.17;790.37;;;;;;;29.43;41.51;101337.59;5070093;28;20205;-68
2021/08/12 10:27:56;;;;;;;889.90;781.53;;;;;;;29.96;41.40;101341.16;5069714;28;20209;-68
2021/08/12 10:30:27;;;;;;;886.33;778.23;;;;;;;29.33;39.76;101295.63;5070153;28;20755;-68
2021/08/12 10:32:58;;;;;;;892.20;786.57;;;;;;;29.76;40.57;101343.13;5069785;28;20382;-69
2021/08/12 10:35:27;;;;;;;887.30;777.97;;;;;;;29.44;41.12;101338.44;5070357;28;20572;-68
2021/08/12 10:37:57;;;;;;;892.10;783.07;;;;;;;29.01;41.14;101355.44;5069448;28;20194;-68
2021/08/12 10:40:27;;;;;;;878.73;762.03;;;;;;;29.20;41.86;101349.09;5069884;28;20193;-68
2021/08/12 10:43:00;;;;;;;878.47;761.77;;;;;;;29.46;40.77;101350.19;5069247;28;20202;-68
2021/08/12 10:45:29;;;;;;;869.87;756.23;;;;;;;29.64;40.82;101351.22;5069815;28;20656;-68
2021/08/12 10:47:58;;;;;;;880.07;765.10;;;;;;;29.71;41.29;101358.72;5069282;28;20571;-68
2021/08/12 10:50:38;;;;;;;892.60;780.40;;;;;;;29.27;41.21;101355.47;5069507;28;20194;-68
2021/08/12 10:53:20;;;;;;;886.13;771.40;;;;;;;28.63;41.82;101363.38;5069632;28;20216;-68
2021/08/12 10:56:12;;;;;;;892.53;776.97;;;;;;;28.53;41.87;101363.78;5069432;28;20213;-67
2021/08/12 10:58:47;;;;;;;876.17;764.17;;;;;;;27.80;43.48;101354.22;5069471;28;20220;-68
2021/08/12 11:01:29;;;;;;;880.57;764.30;;;;;;;28.06;44.02;101351.63;5055247;28;20200;-68
2021/08/12 11:04:02;;;;;;;871.53;755.67;;;;;;;27.99;44.38;101356.25;5069149;28;20243;-68
2021/08/12 11:06:43;;;;;;;877.80;766.80;;;;;;;27.93;44.32;101357.06;5102115;28;20201;-68
2021/08/12 11:09:12;;;;;;;878.03;767.93;;;;;;;27.96;44.35;101364.09;5069167;28;20207;-68
2021/08/12 11:11:58;;;;;;;884.07;773.90;;;;;;;28.01;43.30;101362.44;5069198;28;20197;-68